createdAt,value
2022-11-28T00:00:03.354Z,3.25
2022-11-28T00:02:30.600Z,3.03
2022-11-28T00:04:57.813Z,3.42
2022-11-28T00:07:24.980Z,2.83
2022-11-28T00:09:52.957Z,3.15
2022-11-28T00:12:20.107Z,3.95
2022-11-28T00:14:47.241Z,3.03
2022-11-28T00:17:14.318Z,3.28
2022-11-28T00:19:41.411Z,3.08
2022-11-28T00:22:08.477Z,2.63
2022-11-28T00:24:35.553Z,3.25
2022-11-28T00:27:02.624Z,3.13
2022-11-28T00:29:29.717Z,3.88
2022-11-28T00:31:56.846Z,3.55
2022-11-28T00:34:23.963Z,3.80
2022-11-28T00:36:51.033Z,3.40
2022-11-28T00:39:18.135Z,3.05
2022-11-28T00:41:45.254Z,3.13
2022-11-28T00:44:12.387Z,3.00
2022-11-28T00:46:39.473Z,2.80
2022-11-28T00:49:06.561Z,3.38
2022-11-28T00:51:33.659Z,3.28
2022-11-28T00:54:00.790Z,3.72
2022-11-28T00:56:27.894Z,3.10
2022-11-28T00:58:55.101Z,3.78
2022-11-28T01:01:22.289Z,3.55
2022-11-28T01:03:49.463Z,3.45
2022-11-28T01:06:16.532Z,3.25
2022-11-28T01:08:44.869Z,2.92
2022-11-28T01:11:12.633Z,3.25
2022-11-28T01:13:39.708Z,3.47
2022-11-28T01:16:06.833Z,2.88
2022-11-28T01:18:34.407Z,3.13
2022-11-28T01:21:01.514Z,3.58
2022-11-28T01:23:28.576Z,4.57
2022-11-28T01:25:55.658Z,3.63
2022-11-28T01:28:22.757Z,3.60
2022-11-28T01:30:49.830Z,3.20
2022-11-28T01:33:16.896Z,2.90
2022-11-28T01:35:43.956Z,4.68
2022-11-28T01:38:11.022Z,4.13
2022-11-28T01:40:38.098Z,3.90
2022-11-28T01:43:05.173Z,3.60
2022-11-28T01:45:32.242Z,3.28
2022-11-28T01:47:59.305Z,3.53
2022-11-28T01:50:26.363Z,3.53
2022-11-28T01:52:53.428Z,3.22
2022-11-28T01:55:20.480Z,3.25
2022-11-28T01:57:47.599Z,3.80
2022-11-28T02:00:14.699Z,3.70
2022-11-28T02:02:41.778Z,4.05
2022-11-28T02:05:08.930Z,3.00
2022-11-28T02:07:36.119Z,3.28
2022-11-28T02:10:03.287Z,3.95
2022-11-28T02:12:30.354Z,4.05
2022-11-28T02:14:57.413Z,4.22
2022-11-28T02:17:24.497Z,3.78
2022-11-28T02:19:51.578Z,3.65
2022-11-28T02:22:18.682Z,4.18
2022-11-28T02:24:45.767Z,3.97
2022-11-28T02:27:13.074Z,4.13
2022-11-28T02:29:40.195Z,3.83
2022-11-28T02:32:07.311Z,3.55
2022-11-28T02:34:34.561Z,4.07
2022-11-28T02:37:01.632Z,3.63
2022-11-28T02:39:28.712Z,4.15
2022-11-28T02:41:55.805Z,3.42
2022-11-28T02:44:22.875Z,3.85
2022-11-28T02:46:50.015Z,4.45
2022-11-28T02:49:17.268Z,3.75
2022-11-28T02:51:44.347Z,3.58
2022-11-28T02:54:11.410Z,4.13
2022-11-28T02:56:38.495Z,4.03
2022-11-28T02:59:05.653Z,3.90
2022-11-28T03:01:32.729Z,3.88
2022-11-28T03:03:59.803Z,4.47
2022-11-28T03:06:27.248Z,3.60
2022-11-28T03:08:54.396Z,4.15
2022-11-28T03:11:22.005Z,3.58
2022-11-28T03:13:49.145Z,4.25
2022-11-28T03:16:16.534Z,3.60
2022-11-28T03:18:43.667Z,4.03
2022-11-28T03:21:10.762Z,3.92
2022-11-28T03:23:37.920Z,3.67
2022-11-28T03:26:04.981Z,4.05
2022-11-28T03:28:32.193Z,3.92
2022-11-28T03:30:59.326Z,4.40
2022-11-28T03:33:26.437Z,4.07
2022-11-28T03:35:53.499Z,3.78
2022-11-28T03:38:20.568Z,4.53
2022-11-28T03:40:47.638Z,4.05
2022-11-28T03:43:14.763Z,3.50
2022-11-28T03:45:41.854Z,4.90
2022-11-28T03:48:08.923Z,4.45
2022-11-28T03:50:36.000Z,3.47
2022-11-28T03:53:03.128Z,3.57
2022-11-28T03:55:32.816Z,4.72
2022-11-28T03:58:00.013Z,4.47
2022-11-28T04:00:27.372Z,3.85
2022-11-28T04:02:55.422Z,3.30
2022-11-28T04:05:22.580Z,3.47
2022-11-28T04:07:49.725Z,4.07
2022-11-28T04:10:16.865Z,3.65
2022-11-28T04:12:43.946Z,3.00
2022-11-28T04:15:11.858Z,3.92
2022-11-28T04:17:38.957Z,4.50
2022-11-28T04:20:06.027Z,4.35
2022-11-28T04:22:33.087Z,3.38
2022-11-28T04:25:00.181Z,3.95
2022-11-28T04:27:27.307Z,4.18
2022-11-28T04:29:54.446Z,3.67
2022-11-28T04:32:21.505Z,3.42
2022-11-28T04:34:48.581Z,3.03
2022-11-28T04:37:15.680Z,4.28
2022-11-28T04:39:42.768Z,3.65
2022-11-28T04:42:09.891Z,4.07
2022-11-28T04:44:36.974Z,3.80
2022-11-28T04:47:04.093Z,4.10
2022-11-28T04:49:31.285Z,4.18
2022-11-28T04:51:59.253Z,4.10
2022-11-28T04:54:26.389Z,4.10
2022-11-28T04:56:53.469Z,3.90
2022-11-28T04:59:20.535Z,3.70
2022-11-28T05:01:47.653Z,3.38
2022-11-28T05:04:15.138Z,3.75
2022-11-28T05:06:42.211Z,4.25
2022-11-28T05:09:09.319Z,4.10
2022-11-28T05:11:36.393Z,2.95
2022-11-28T05:14:03.466Z,3.80
2022-11-28T05:16:30.638Z,3.15
2022-11-28T05:18:57.757Z,3.28
2022-11-28T05:21:24.835Z,3.90
2022-11-28T05:23:51.988Z,4.07
2022-11-28T05:26:19.141Z,3.10
2022-11-28T05:28:46.238Z,4.35
2022-11-28T05:31:13.375Z,4.65
2022-11-28T05:33:40.578Z,3.70
2022-11-28T05:36:12.554Z,4.28
2022-11-28T05:38:40.340Z,4.30
2022-11-28T05:41:07.429Z,5.10
2022-11-28T05:43:34.522Z,4.05
2022-11-28T05:46:01.618Z,3.70
2022-11-28T05:48:28.758Z,4.22
2022-11-28T05:50:55.993Z,3.65
2022-11-28T05:53:23.212Z,4.72
2022-11-28T05:55:50.274Z,4.50
2022-11-28T05:58:17.374Z,3.83
2022-11-28T06:00:44.495Z,4.35
2022-11-28T06:03:21.168Z,3.89
2022-11-28T06:05:48.309Z,4.05
2022-11-28T06:08:16.025Z,3.78
2022-11-28T06:10:43.104Z,4.72
2022-11-28T06:13:10.223Z,4.20
2022-11-28T06:15:38.550Z,3.95
2022-11-28T06:18:05.749Z,3.80
2022-11-28T06:20:32.928Z,3.63
2022-11-28T06:23:00.527Z,3.78
2022-11-28T06:25:27.591Z,4.05
2022-11-28T06:27:54.645Z,4.13
2022-11-28T06:30:21.720Z,3.30
2022-11-28T06:32:48.779Z,4.25
2022-11-28T06:35:15.852Z,4.32
2022-11-28T06:37:42.987Z,3.47
2022-11-28T06:40:10.055Z,4.35
2022-11-28T06:42:37.138Z,3.85
2022-11-28T06:45:04.230Z,8.35
2022-11-28T06:47:31.297Z,4.43
2022-11-28T06:49:58.493Z,4.13
2022-11-28T06:52:25.562Z,4.05
2022-11-28T06:54:52.662Z,4.28
2022-11-28T06:57:19.746Z,4.70
2022-11-28T06:59:46.865Z,4.15
2022-11-28T07:02:14.016Z,4.75
2022-11-28T07:04:41.166Z,5.47
2022-11-28T07:07:10.634Z,3.55
2022-11-28T07:09:39.780Z,4.25
2022-11-28T07:12:06.994Z,4.72
2022-11-28T07:14:34.150Z,4.55
2022-11-28T07:17:01.404Z,5.45
2022-11-28T07:19:28.564Z,3.88
2022-11-28T07:21:55.714Z,5.47
2022-11-28T07:24:23.271Z,5.80
2022-11-28T07:26:50.362Z,4.53
2022-11-28T07:29:17.427Z,7.90
2022-11-28T07:31:44.560Z,7.72
2022-11-28T07:34:11.721Z,5.40
2022-11-28T07:36:38.845Z,7.15
2022-11-28T07:39:05.922Z,9.43
2022-11-28T07:41:33.033Z,12.70
2022-11-28T07:44:00.178Z,9.73
2022-11-28T07:46:27.339Z,9.48
2022-11-28T07:48:54.493Z,11.52
2022-11-28T07:51:21.665Z,15.38
2022-11-28T07:53:48.768Z,21.88
2022-11-28T07:56:15.868Z,19.10
2022-11-28T07:58:42.943Z,16.25
2022-11-28T08:01:10.019Z,10.75
2022-11-28T08:03:37.162Z,17.25
2022-11-28T08:06:04.364Z,18.70
2022-11-28T08:08:31.522Z,18.23
2022-11-28T08:10:58.616Z,11.07
2022-11-28T08:13:25.685Z,23.45
2022-11-28T08:15:52.962Z,23.77
2022-11-28T08:18:20.077Z,40.05
2022-11-28T08:20:47.154Z,32.88
2022-11-28T08:23:14.214Z,28.55
2022-11-28T08:25:41.363Z,42.67
2022-11-28T08:28:08.463Z,23.25
2022-11-28T08:30:35.677Z,33.78
2022-11-28T08:33:02.843Z,38.72
2022-11-28T08:35:30.110Z,41.45
2022-11-28T08:38:01.639Z,35.75
2022-11-28T08:40:29.277Z,51.47
2022-11-28T08:42:56.344Z,35.03
2022-11-28T08:45:23.434Z,42.80
2022-11-28T08:47:50.509Z,39.40
2022-11-28T08:50:17.589Z,44.78
2022-11-28T08:52:44.658Z,39.25
2022-11-28T08:55:11.746Z,35.40
2022-11-28T08:57:38.827Z,31.50
2022-11-28T09:00:06.303Z,27.70
2022-11-28T09:02:33.403Z,24.90
2022-11-28T09:05:00.518Z,24.15
2022-11-28T09:07:27.660Z,32.72
2022-11-28T09:09:54.772Z,32.63
2022-11-28T09:12:21.857Z,25.90
2022-11-28T09:14:48.955Z,37.65
2022-11-28T09:17:16.119Z,27.55
2022-11-28T09:19:43.694Z,23.00
2022-11-28T09:22:11.110Z,28.58
2022-11-28T09:24:38.218Z,22.30
2022-11-28T09:27:05.370Z,26.42
2022-11-28T09:29:32.482Z,22.75
2022-11-28T09:31:59.552Z,30.33
2022-11-28T09:34:27.387Z,25.40
2022-11-28T09:36:54.486Z,28.08
2022-11-28T09:39:21.581Z,18.20
2022-11-28T09:41:48.654Z,21.85
2022-11-28T09:44:15.812Z,24.52
2022-11-28T09:46:42.902Z,21.05
2022-11-28T09:49:09.985Z,18.98
2022-11-28T09:51:37.134Z,23.58
2022-11-28T09:54:04.270Z,19.13
2022-11-28T09:56:31.362Z,29.38
2022-11-28T09:58:59.099Z,16.48
2022-11-28T10:01:26.418Z,20.13
2022-11-28T10:03:53.526Z,19.85
2022-11-28T10:06:20.671Z,17.10
2022-11-28T10:08:47.736Z,18.42
2022-11-28T10:11:14.825Z,21.30
2022-11-28T10:14:06.584Z,15.45
2022-11-28T10:16:29.445Z,13.50
2022-11-28T10:18:56.582Z,18.80
2022-11-28T10:21:23.863Z,18.23
2022-11-28T10:23:50.939Z,18.67
2022-11-28T10:26:18.077Z,17.55
2022-11-28T10:28:45.175Z,14.75
2022-11-28T10:31:12.350Z,21.77
2022-11-28T10:33:39.475Z,11.85
2022-11-28T10:36:06.556Z,13.05
2022-11-28T10:38:34.164Z,13.13
2022-11-28T10:41:01.899Z,14.68
2022-11-28T10:43:29.026Z,19.60
2022-11-28T10:45:56.165Z,16.25
2022-11-28T10:48:39.199Z,11.88
2022-11-28T10:51:06.922Z,13.93
2022-11-28T10:53:34.053Z,15.80
2022-11-28T10:56:01.151Z,11.65
2022-11-28T10:58:28.251Z,14.75
2022-11-28T11:00:55.431Z,11.55
2022-11-28T11:03:22.521Z,39.10
2022-11-28T11:05:49.598Z,10.77
2022-11-28T11:08:16.850Z,11.82
2022-11-28T11:10:44.169Z,16.52
2022-11-28T11:13:11.272Z,11.98
2022-11-28T11:15:38.377Z,16.52
2022-11-28T11:18:05.591Z,11.45
2022-11-28T11:20:33.529Z,12.90
2022-11-28T11:23:00.655Z,13.05
2022-11-28T11:25:27.736Z,12.35
2022-11-28T11:27:54.924Z,15.40
2022-11-28T11:30:21.985Z,24.30
2022-11-28T11:32:51.597Z,14.95
2022-11-28T11:35:18.885Z,13.23
2022-11-28T11:37:45.958Z,14.57
2022-11-28T11:40:13.248Z,20.13
2022-11-28T11:42:40.409Z,24.13
2022-11-28T11:45:07.500Z,27.75
2022-11-28T11:47:34.585Z,27.63
2022-11-28T11:50:01.653Z,20.35
2022-11-28T11:52:28.778Z,28.25
2022-11-28T11:54:56.332Z,24.92
2022-11-28T11:57:33.010Z,26.77
2022-11-28T12:00:00.869Z,32.88
2022-11-28T12:02:28.023Z,26.85
2022-11-28T12:04:55.625Z,35.22
2022-11-28T12:07:22.974Z,26.38
2022-11-28T12:09:50.323Z,22.30
2022-11-28T12:12:17.409Z,19.70
2022-11-28T12:14:44.869Z,24.27
2022-11-28T12:17:40.503Z,21.35
2022-11-28T12:19:59.129Z,15.27
2022-11-28T12:22:26.221Z,25.50
2022-11-28T12:24:53.619Z,15.43
2022-11-28T12:27:20.750Z,19.02
2022-11-28T12:29:47.830Z,27.33
2022-11-28T12:32:14.970Z,25.98
2022-11-28T12:34:42.086Z,27.40
2022-11-28T12:37:09.167Z,27.73
2022-11-28T12:39:36.550Z,19.75
2022-11-28T12:42:05.592Z,23.88
2022-11-28T12:44:32.749Z,14.93
2022-11-28T12:46:59.841Z,17.05
2022-11-28T12:49:26.947Z,19.05
2022-11-28T12:51:54.091Z,28.27
2022-11-28T12:54:21.234Z,20.90
2022-11-28T12:56:49.524Z,19.83
2022-11-28T12:59:17.705Z,19.02
2022-11-28T13:01:44.845Z,17.27
2022-11-28T13:04:11.990Z,18.98
2022-11-28T13:06:39.090Z,19.88
2022-11-28T13:09:06.564Z,18.23
2022-11-28T13:11:33.641Z,17.55
2022-11-28T13:14:00.736Z,18.60
2022-11-28T13:16:28.512Z,13.70
2022-11-28T13:18:55.630Z,15.82
2022-11-28T13:21:22.878Z,12.57
2022-11-28T13:23:50.016Z,17.67
2022-11-28T13:26:17.150Z,15.85
2022-11-28T13:28:44.215Z,14.55
2022-11-28T13:31:12.421Z,12.95
2022-11-28T13:33:39.588Z,16.70
2022-11-28T13:36:06.795Z,14.55
2022-11-28T13:38:36.303Z,8.50
2022-11-28T13:41:03.933Z,12.88
2022-11-28T13:43:33.141Z,14.90
2022-11-28T13:46:00.367Z,12.68
2022-11-28T13:48:49.755Z,11.48
2022-11-28T13:51:18.753Z,13.40
2022-11-28T13:53:49.600Z,9.57
2022-11-28T13:56:16.700Z,9.85
2022-11-28T13:58:43.820Z,8.85
2022-11-28T14:01:10.997Z,12.63
2022-11-28T14:03:38.062Z,11.95
2022-11-28T14:06:05.232Z,10.50
2022-11-28T14:08:32.491Z,10.30
2022-11-28T14:10:59.561Z,11.77
2022-11-28T14:13:26.834Z,13.38
2022-11-28T14:15:53.953Z,8.32
2022-11-28T14:18:54.326Z,10.32
2022-11-28T14:21:08.266Z,11.35
2022-11-28T14:23:35.409Z,7.80
2022-11-28T14:26:02.481Z,8.32
2022-11-28T14:28:29.569Z,10.55
2022-11-28T14:30:56.644Z,8.68
2022-11-28T14:33:23.777Z,9.40
2022-11-28T14:35:50.895Z,10.93
2022-11-28T14:38:18.034Z,9.73
2022-11-28T14:40:45.116Z,7.35
2022-11-28T14:43:12.181Z,7.70
2022-11-28T14:45:39.565Z,11.15
2022-11-28T14:48:06.856Z,7.53
2022-11-28T14:50:33.964Z,10.13
2022-11-28T14:53:01.028Z,9.65
2022-11-28T14:55:28.117Z,6.93
2022-11-28T14:57:55.230Z,7.70
2022-11-28T15:00:22.838Z,7.10
2022-11-28T15:02:52.757Z,8.30
2022-11-28T15:05:19.979Z,5.30
2022-11-28T15:07:47.046Z,8.50
2022-11-28T15:10:14.130Z,8.38
2022-11-28T15:12:41.348Z,6.95
2022-11-28T15:15:08.421Z,6.57
2022-11-28T15:17:35.565Z,6.18
2022-11-28T15:20:02.815Z,11.40
2022-11-28T15:22:30.803Z,8.38
2022-11-28T15:24:57.883Z,7.00
2022-11-28T15:27:25.158Z,9.10
2022-11-28T15:29:52.244Z,8.77
2022-11-28T15:32:19.311Z,9.60
2022-11-28T15:34:46.459Z,6.63
2022-11-28T15:37:13.548Z,6.80
2022-11-28T15:39:40.629Z,8.93
2022-11-28T15:42:08.101Z,6.47
2022-11-28T15:44:36.521Z,5.43
2022-11-28T15:47:03.683Z,5.25
2022-11-28T15:49:30.793Z,5.47
2022-11-28T15:51:59.757Z,7.05
2022-11-28T15:54:26.831Z,6.82
2022-11-28T15:56:53.893Z,6.32
2022-11-28T15:59:20.952Z,7.68
2022-11-28T16:01:48.092Z,8.10
2022-11-28T16:04:15.181Z,5.00
2022-11-28T16:06:42.264Z,5.97
2022-11-28T16:09:09.905Z,4.35
2022-11-28T16:11:36.991Z,5.85
2022-11-28T16:14:04.083Z,5.53
2022-11-28T16:16:31.277Z,5.00
2022-11-28T16:18:58.622Z,9.40
2022-11-28T16:21:25.940Z,5.25
2022-11-28T16:23:53.088Z,5.68
2022-11-28T16:26:20.158Z,6.50
2022-11-28T16:28:47.379Z,7.18
2022-11-28T16:31:14.528Z,6.18
2022-11-28T16:33:41.670Z,5.50
2022-11-28T16:36:08.765Z,4.45
2022-11-28T16:38:35.832Z,6.15
2022-11-28T16:41:02.930Z,4.25
2022-11-28T16:43:30.035Z,4.97
2022-11-28T16:45:57.104Z,5.72
2022-11-28T16:48:27.140Z,6.25
2022-11-28T16:50:54.251Z,7.18
2022-11-28T16:53:21.319Z,6.47
2022-11-28T16:55:48.451Z,5.82
2022-11-28T16:58:15.549Z,7.25
2022-11-28T17:00:42.698Z,6.00
2022-11-28T17:03:12.927Z,4.65
2022-11-28T17:05:40.160Z,4.55
2022-11-28T17:08:07.237Z,5.82
2022-11-28T17:10:34.301Z,5.88
2022-11-28T17:13:01.382Z,5.57
2022-11-28T17:15:28.437Z,7.75
2022-11-28T17:17:57.222Z,7.18
2022-11-28T17:20:24.360Z,5.10
2022-11-28T17:22:51.452Z,5.70
2022-11-28T17:25:18.567Z,4.43
2022-11-28T17:27:45.653Z,8.60
2022-11-28T17:30:12.730Z,6.68
2022-11-28T17:32:39.797Z,11.07
2022-11-28T17:35:07.046Z,7.43
2022-11-28T17:37:34.145Z,10.75
2022-11-28T17:40:19.820Z,8.93
2022-11-28T17:42:46.948Z,8.55
2022-11-28T17:45:14.131Z,5.00
2022-11-28T17:47:41.190Z,8.52
2022-11-28T17:50:08.245Z,6.53
2022-11-28T17:52:35.330Z,6.55
2022-11-28T17:55:07.054Z,6.50
2022-11-28T17:57:34.480Z,7.78
2022-11-28T18:00:01.664Z,6.20
2022-11-28T18:02:28.945Z,7.80
2022-11-28T18:04:56.340Z,7.13
2022-11-28T18:07:23.500Z,6.40
2022-11-28T18:09:51.151Z,8.88
2022-11-28T18:12:18.241Z,6.45
2022-11-28T18:14:45.354Z,6.32
2022-11-28T18:17:12.563Z,6.78
2022-11-28T18:19:39.627Z,9.80
2022-11-28T18:22:08.565Z,6.07
2022-11-28T18:24:36.168Z,7.57
2022-11-28T18:27:03.378Z,11.40
2022-11-28T18:29:30.490Z,8.30
2022-11-28T18:31:57.642Z,9.00
2022-11-28T18:34:24.785Z,6.15
2022-11-28T18:36:58.413Z,7.55
2022-11-28T18:39:25.490Z,7.90
2022-11-28T18:41:52.585Z,9.60
2022-11-28T18:44:19.859Z,10.60
2022-11-28T18:46:46.972Z,12.27
2022-11-28T18:49:15.294Z,8.48
2022-11-28T18:51:42.361Z,7.47
2022-11-28T18:54:09.481Z,6.07
2022-11-28T18:56:36.591Z,8.88
2022-11-28T18:59:04.257Z,7.93
2022-11-28T19:01:31.455Z,9.95
2022-11-28T19:03:58.753Z,8.50
2022-11-28T19:06:35.022Z,8.00
2022-11-28T19:09:28.204Z,9.18
2022-11-28T19:11:55.857Z,6.43
2022-11-28T19:14:22.928Z,10.85
2022-11-28T19:16:50.129Z,7.45
2022-11-28T19:19:20.401Z,6.32
2022-11-28T19:21:48.224Z,7.65
2022-11-28T19:24:15.476Z,14.60
2022-11-28T19:26:42.583Z,7.15
2022-11-28T19:29:09.726Z,6.47
2022-11-28T19:31:36.914Z,6.07
2022-11-28T19:34:04.035Z,9.95
2022-11-28T19:36:31.241Z,6.60
2022-11-28T19:38:58.337Z,7.57
2022-11-28T19:41:25.438Z,9.18
2022-11-28T19:43:52.705Z,13.88
2022-11-28T19:46:19.902Z,8.07
2022-11-28T19:48:47.094Z,6.25
2022-11-28T19:51:14.309Z,6.07
2022-11-28T19:53:41.497Z,6.82
2022-11-28T19:56:08.689Z,6.90
2022-11-28T19:58:35.862Z,5.60
2022-11-28T20:01:02.971Z,7.97
2022-11-28T20:03:30.240Z,8.10
2022-11-28T20:05:57.495Z,6.07
2022-11-28T20:08:24.648Z,6.20
2022-11-28T20:10:51.764Z,7.38
2022-11-28T20:13:18.858Z,8.18
2022-11-28T20:15:45.992Z,9.18
2022-11-28T20:18:13.147Z,9.35
2022-11-28T20:20:40.218Z,10.48
2022-11-28T20:23:07.301Z,9.38
2022-11-28T20:25:34.399Z,11.88
2022-11-28T20:28:01.501Z,6.60
2022-11-28T20:30:28.648Z,13.10
2022-11-28T20:32:55.813Z,7.55
2022-11-28T20:35:24.551Z,6.68
2022-11-28T20:37:51.743Z,5.95
2022-11-28T20:40:18.815Z,8.35
2022-11-28T20:42:45.885Z,5.60
2022-11-28T20:45:13.021Z,10.15
2022-11-28T20:47:40.201Z,8.95
2022-11-28T20:50:07.320Z,5.30
2022-11-28T20:52:34.386Z,7.28
2022-11-28T20:55:01.554Z,7.30
2022-11-28T20:57:28.638Z,5.63
2022-11-28T20:59:57.102Z,8.00
2022-11-28T21:02:24.245Z,6.60
2022-11-28T21:04:51.685Z,8.75
2022-11-28T21:07:19.347Z,7.93
2022-11-28T21:09:46.665Z,5.95
2022-11-28T21:12:19.466Z,7.60
2022-11-28T21:14:47.967Z,6.53
2022-11-28T21:17:15.071Z,7.60
2022-11-28T21:19:42.455Z,7.95
2022-11-28T21:22:09.834Z,7.13
2022-11-28T21:24:36.927Z,5.22
2022-11-28T21:27:04.119Z,6.25
2022-11-28T21:29:31.286Z,7.90
2022-11-28T21:31:58.476Z,6.20
2022-11-28T21:34:25.572Z,7.60
2022-11-28T21:36:52.722Z,8.23
2022-11-28T21:39:20.071Z,6.38
2022-11-28T21:41:47.406Z,6.18
2022-11-28T21:44:14.558Z,8.05
2022-11-28T21:46:41.711Z,6.82
2022-11-28T21:49:08.788Z,8.25
2022-11-28T21:51:35.860Z,9.48
2022-11-28T21:54:02.952Z,7.90
2022-11-28T21:56:30.115Z,5.72
2022-11-28T21:58:57.209Z,4.70
2022-11-28T22:01:24.395Z,5.85
2022-11-28T22:03:51.696Z,6.28
2022-11-28T22:06:18.764Z,5.30
2022-11-28T22:08:45.892Z,7.72
2022-11-28T22:11:13.477Z,7.63
2022-11-28T22:13:42.123Z,8.40
2022-11-28T22:16:09.616Z,6.70
2022-11-28T22:18:36.809Z,6.50
2022-11-28T22:21:06.602Z,5.32
2022-11-28T22:23:40.193Z,8.55
2022-11-28T22:26:07.282Z,6.50
2022-11-28T22:28:34.437Z,5.15
2022-11-28T22:31:01.511Z,5.05
2022-11-28T22:33:28.591Z,5.35
2022-11-28T22:35:55.667Z,5.22
2022-11-28T22:38:22.796Z,9.60
2022-11-28T22:40:49.924Z,5.47
2022-11-28T22:43:17.032Z,5.38
2022-11-28T22:45:44.225Z,5.35
2022-11-28T22:48:11.357Z,5.63
2022-11-28T22:50:40.166Z,5.97
2022-11-28T22:53:07.452Z,5.18
2022-11-28T22:55:34.517Z,9.57
2022-11-28T22:58:01.593Z,4.45
2022-11-28T23:00:28.672Z,4.82
2022-11-28T23:02:55.877Z,5.88
2022-11-28T23:05:23.024Z,6.38
2022-11-28T23:07:50.169Z,5.47
2022-11-28T23:10:17.333Z,4.93
2022-11-28T23:12:44.504Z,5.40
2022-11-28T23:15:11.617Z,5.30
2022-11-28T23:17:38.681Z,7.40
2022-11-28T23:20:05.767Z,6.32
2022-11-28T23:22:34.290Z,5.30
2022-11-28T23:25:01.418Z,5.28
2022-11-28T23:27:28.549Z,4.55
2022-11-28T23:29:55.611Z,4.80
2022-11-28T23:32:22.698Z,4.05
2022-11-28T23:34:49.813Z,5.40
2022-11-28T23:37:16.878Z,6.53
2022-11-28T23:39:43.957Z,4.57
2022-11-28T23:42:11.040Z,5.10
2022-11-28T23:44:38.140Z,5.70
2022-11-28T23:47:05.223Z,5.13
2022-11-28T23:49:32.408Z,5.80
2022-11-28T23:51:59.613Z,4.88
2022-11-28T23:54:26.735Z,4.68
2022-11-28T23:56:53.879Z,6.32
2022-11-28T23:59:20.947Z,4.45
